sensor_id;sensor_type;location;lat;lon;timestamp;P1;durP1;ratioP1;P2;durP2;ratioP2
71622;SDS011;59473;53.214;5.728;2022-12-29T00:02:01;14.87;;;7.60;;
71622;SDS011;59473;53.214;5.728;2022-12-29T00:04:26;13.90;;;7.25;;
71622;SDS011;59473;53.214;5.728;2022-12-29T00:06:51;11.67;;;6.73;;
71622;SDS011;59473;53.214;5.728;2022-12-29T00:09:17;12.33;;;7.47;;
71622;SDS011;59473;53.214;5.728;2022-12-29T00:11:42;14.47;;;8.07;;
71622;SDS011;59473;53.214;5.728;2022-12-29T00:14:10;14.13;;;7.80;;
71622;SDS011;59473;53.214;5.728;2022-12-29T00:16:55;16.27;;;7.47;;
71622;SDS011;59473;53.214;5.728;2022-12-29T00:19:20;15.70;;;8.00;;
71622;SDS011;59473;53.214;5.728;2022-12-29T00:22:04;14.70;;;7.80;;
71622;SDS011;59473;53.214;5.728;2022-12-29T00:24:47;12.47;;;7.73;;
71622;SDS011;59473;53.214;5.728;2022-12-29T00:27:31;12.55;;;7.40;;
71622;SDS011;59473;53.214;5.728;2022-12-29T00:30:16;14.35;;;7.97;;
71622;SDS011;59473;53.214;5.728;2022-12-29T00:33:00;14.63;;;8.95;;
71622;SDS011;59473;53.214;5.728;2022-12-29T00:35:52;15.60;;;8.88;;
71622;SDS011;59473;53.214;5.728;2022-12-29T00:38:18;16.33;;;8.60;;
71622;SDS011;59473;53.214;5.728;2022-12-29T00:41:02;15.90;;;9.30;;
71622;SDS011;59473;53.214;5.728;2022-12-29T00:43:46;17.73;;;9.48;;
71622;SDS011;59473;53.214;5.728;2022-12-29T00:46:29;17.42;;;9.60;;
71622;SDS011;59473;53.214;5.728;2022-12-29T00:48:55;16.73;;;9.57;;
71622;SDS011;59473;53.214;5.728;2022-12-29T00:51:39;17.80;;;9.65;;
71622;SDS011;59473;53.214;5.728;2022-12-29T00:54:04;21.63;;;10.00;;
71622;SDS011;59473;53.214;5.728;2022-12-29T00:56:29;14.43;;;8.47;;
71622;SDS011;59473;53.214;5.728;2022-12-29T00:58:54;16.77;;;8.87;;
71622;SDS011;59473;53.214;5.728;2022-12-29T01:01:20;16.87;;;8.73;;
71622;SDS011;59473;53.214;5.728;2022-12-29T01:03:45;20.07;;;9.73;;
71622;SDS011;59473;53.214;5.728;2022-12-29T01:06:10;16.10;;;9.93;;
71622;SDS011;59473;53.214;5.728;2022-12-29T01:08:36;19.58;;;10.00;;
71622;SDS011;59473;53.214;5.728;2022-12-29T01:11:06;19.77;;;9.95;;
71622;SDS011;59473;53.214;5.728;2022-12-29T01:13:31;15.70;;;8.63;;
71622;SDS011;59473;53.214;5.728;2022-12-29T01:15:57;17.58;;;9.63;;
71622;SDS011;59473;53.214;5.728;2022-12-29T01:18:22;18.07;;;10.10;;
71622;SDS011;59473;53.214;5.728;2022-12-29T01:20:48;19.83;;;10.43;;
71622;SDS011;59473;53.214;5.728;2022-12-29T01:23:13;17.75;;;9.95;;
71622;SDS011;59473;53.214;5.728;2022-12-29T01:25:39;14.73;;;9.87;;
71622;SDS011;59473;53.214;5.728;2022-12-29T01:28:04;16.00;;;9.00;;
71622;SDS011;59473;53.214;5.728;2022-12-29T01:30:29;16.47;;;8.53;;
71622;SDS011;59473;53.214;5.728;2022-12-29T01:32:54;15.87;;;8.73;;
71622;SDS011;59473;53.214;5.728;2022-12-29T01:35:20;15.57;;;8.87;;
71622;SDS011;59473;53.214;5.728;2022-12-29T01:37:45;15.00;;;7.67;;
71622;SDS011;59473;53.214;5.728;2022-12-29T01:40:10;16.93;;;8.73;;
71622;SDS011;59473;53.214;5.728;2022-12-29T01:42:35;16.23;;;8.17;;
71622;SDS011;59473;53.214;5.728;2022-12-29T01:45:14;15.47;;;8.50;;
71622;SDS011;59473;53.214;5.728;2022-12-29T01:47:41;14.38;;;7.88;;
71622;SDS011;59473;53.214;5.728;2022-12-29T01:50:20;16.63;;;8.52;;
71622;SDS011;59473;53.214;5.728;2022-12-29T01:52:49;19.30;;;8.40;;
71622;SDS011;59473;53.214;5.728;2022-12-29T01:55:16;13.73;;;7.63;;
71622;SDS011;59473;53.214;5.728;2022-12-29T01:57:43;13.20;;;6.90;;
71622;SDS011;59473;53.214;5.728;2022-12-29T02:00:10;14.18;;;7.95;;
71622;SDS011;59473;53.214;5.728;2022-12-29T02:02:35;14.63;;;7.10;;
71622;SDS011;59473;53.214;5.728;2022-12-29T02:05:03;16.03;;;7.70;;
71622;SDS011;59473;53.214;5.728;2022-12-29T02:07:30;17.60;;;8.90;;
71622;SDS011;59473;53.214;5.728;2022-12-29T02:09:56;15.38;;;7.88;;
71622;SDS011;59473;53.214;5.728;2022-12-29T02:12:22;17.30;;;9.33;;
71622;SDS011;59473;53.214;5.728;2022-12-29T02:14:49;18.92;;;8.45;;
71622;SDS011;59473;53.214;5.728;2022-12-29T02:33:18;6.18;;;2.17;;
71622;SDS011;59473;53.214;5.728;2022-12-29T02:41:18;5.90;;;2.00;;
71622;SDS011;59473;53.214;5.728;2022-12-29T02:43:47;8.93;;;2.53;;
71622;SDS011;59473;53.214;5.728;2022-12-29T02:48:48;4.97;;;2.50;;
71622;SDS011;59473;53.214;5.728;2022-12-29T02:54:05;7.13;;;2.47;;
71622;SDS011;59473;53.214;5.728;2022-12-29T02:56:49;7.85;;;2.83;;
71622;SDS011;59473;53.214;5.728;2022-12-29T02:59:14;5.70;;;2.67;;
71622;SDS011;59473;53.214;5.728;2022-12-29T03:01:57;8.43;;;3.10;;
71622;SDS011;59473;53.214;5.728;2022-12-29T03:04:48;9.93;;;3.15;;
71622;SDS011;59473;53.214;5.728;2022-12-29T03:07:40;7.15;;;3.80;;
71622;SDS011;59473;53.214;5.728;2022-12-29T03:10:04;7.28;;;3.80;;
71622;SDS011;59473;53.214;5.728;2022-12-29T03:18:34;13.02;;;4.15;;
71622;SDS011;59473;53.214;5.728;2022-12-29T03:21:04;7.10;;;2.90;;
71622;SDS011;59473;53.214;5.728;2022-12-29T03:23:30;13.85;;;3.33;;
71622;SDS011;59473;53.214;5.728;2022-12-29T03:25:58;15.95;;;2.88;;
71622;SDS011;59473;53.214;5.728;2022-12-29T03:28:26;18.67;;;3.97;;
71622;SDS011;59473;53.214;5.728;2022-12-29T03:30:53;19.02;;;3.35;;
71622;SDS011;59473;53.214;5.728;2022-12-29T03:33:21;14.98;;;3.38;;
71622;SDS011;59473;53.214;5.728;2022-12-29T03:35:47;16.17;;;3.57;;
71622;SDS011;59473;53.214;5.728;2022-12-29T03:38:19;14.23;;;3.13;;
71622;SDS011;59473;53.214;5.728;2022-12-29T03:40:46;16.63;;;2.92;;
71622;SDS011;59473;53.214;5.728;2022-12-29T03:43:13;17.25;;;2.80;;
71622;SDS011;59473;53.214;5.728;2022-12-29T03:45:39;13.18;;;3.10;;
71622;SDS011;59473;53.214;5.728;2022-12-29T03:48:04;13.53;;;2.70;;
71622;SDS011;59473;53.214;5.728;2022-12-29T03:50:30;16.57;;;2.37;;
71622;SDS011;59473;53.214;5.728;2022-12-29T03:52:55;21.80;;;3.43;;
71622;SDS011;59473;53.214;5.728;2022-12-29T03:55:21;17.53;;;3.13;;
71622;SDS011;59473;53.214;5.728;2022-12-29T03:57:46;15.40;;;3.17;;
71622;SDS011;59473;53.214;5.728;2022-12-29T04:00:11;14.40;;;3.10;;
71622;SDS011;59473;53.214;5.728;2022-12-29T04:02:37;11.52;;;2.85;;
71622;SDS011;59473;53.214;5.728;2022-12-29T04:05:02;10.40;;;2.60;;
71622;SDS011;59473;53.214;5.728;2022-12-29T04:07:27;17.07;;;2.90;;
71622;SDS011;59473;53.214;5.728;2022-12-29T04:09:52;14.37;;;3.47;;
71622;SDS011;59473;53.214;5.728;2022-12-29T04:12:18;17.20;;;3.50;;
71622;SDS011;59473;53.214;5.728;2022-12-29T04:14:43;21.30;;;3.40;;
71622;SDS011;59473;53.214;5.728;2022-12-29T04:17:08;21.43;;;3.83;;
71622;SDS011;59473;53.214;5.728;2022-12-29T04:19:33;22.40;;;3.37;;
71622;SDS011;59473;53.214;5.728;2022-12-29T04:21:58;18.77;;;3.93;;
71622;SDS011;59473;53.214;5.728;2022-12-29T04:24:24;19.03;;;3.43;;
71622;SDS011;59473;53.214;5.728;2022-12-29T04:26:49;26.50;;;4.10;;
71622;SDS011;59473;53.214;5.728;2022-12-29T04:29:14;24.33;;;3.20;;
71622;SDS011;59473;53.214;5.728;2022-12-29T04:31:39;24.17;;;4.10;;
71622;SDS011;59473;53.214;5.728;2022-12-29T04:34:05;31.97;;;4.43;;
71622;SDS011;59473;53.214;5.728;2022-12-29T04:36:30;25.90;;;3.83;;
71622;SDS011;59473;53.214;5.728;2022-12-29T04:38:55;21.43;;;3.60;;
71622;SDS011;59473;53.214;5.728;2022-12-29T04:41:20;23.20;;;3.53;;
71622;SDS011;59473;53.214;5.728;2022-12-29T04:43:45;30.43;;;4.20;;
71622;SDS011;59473;53.214;5.728;2022-12-29T04:46:11;25.60;;;3.63;;
71622;SDS011;59473;53.214;5.728;2022-12-29T04:48:36;27.90;;;5.10;;
71622;SDS011;59473;53.214;5.728;2022-12-29T04:51:01;23.33;;;4.80;;
71622;SDS011;59473;53.214;5.728;2022-12-29T04:53:26;20.70;;;4.23;;
71622;SDS011;59473;53.214;5.728;2022-12-29T04:55:52;30.90;;;4.53;;
71622;SDS011;59473;53.214;5.728;2022-12-29T04:58:18;43.67;;;4.17;;
71622;SDS011;59473;53.214;5.728;2022-12-29T05:00:43;28.40;;;4.68;;
71622;SDS011;59473;53.214;5.728;2022-12-29T05:03:08;26.10;;;4.57;;
71622;SDS011;59473;53.214;5.728;2022-12-29T05:05:34;38.87;;;4.23;;
71622;SDS011;59473;53.214;5.728;2022-12-29T05:07:59;31.30;;;3.90;;
71622;SDS011;59473;53.214;5.728;2022-12-29T05:10:24;32.90;;;3.90;;
71622;SDS011;59473;53.214;5.728;2022-12-29T05:12:50;32.00;;;4.07;;
71622;SDS011;59473;53.214;5.728;2022-12-29T05:15:15;37.37;;;4.70;;
71622;SDS011;59473;53.214;5.728;2022-12-29T05:17:41;33.80;;;4.40;;
71622;SDS011;59473;53.214;5.728;2022-12-29T05:20:06;31.57;;;4.40;;
71622;SDS011;59473;53.214;5.728;2022-12-29T05:22:31;22.47;;;3.70;;
71622;SDS011;59473;53.214;5.728;2022-12-29T05:24:57;25.77;;;3.90;;
71622;SDS011;59473;53.214;5.728;2022-12-29T05:27:22;30.13;;;3.90;;
71622;SDS011;59473;53.214;5.728;2022-12-29T05:29:47;24.47;;;4.53;;
71622;SDS011;59473;53.214;5.728;2022-12-29T05:32:12;29.70;;;4.30;;
71622;SDS011;59473;53.214;5.728;2022-12-29T05:34:38;32.43;;;4.33;;
71622;SDS011;59473;53.214;5.728;2022-12-29T05:37:03;19.60;;;3.70;;
71622;SDS011;59473;53.214;5.728;2022-12-29T05:39:29;33.78;;;4.93;;
71622;SDS011;59473;53.214;5.728;2022-12-29T05:41:54;29.93;;;3.80;;
71622;SDS011;59473;53.214;5.728;2022-12-29T05:44:19;24.93;;;4.37;;
71622;SDS011;59473;53.214;5.728;2022-12-29T05:46:45;28.37;;;4.47;;
71622;SDS011;59473;53.214;5.728;2022-12-29T05:49:11;25.92;;;3.78;;
71622;SDS011;59473;53.214;5.728;2022-12-29T05:51:36;23.57;;;3.87;;
71622;SDS011;59473;53.214;5.728;2022-12-29T05:54:01;22.83;;;2.90;;
71622;SDS011;59473;53.214;5.728;2022-12-29T05:56:26;23.37;;;3.57;;
71622;SDS011;59473;53.214;5.728;2022-12-29T05:58:51;22.60;;;3.77;;
71622;SDS011;59473;53.214;5.728;2022-12-29T06:01:17;26.00;;;4.90;;
71622;SDS011;59473;53.214;5.728;2022-12-29T06:03:42;23.40;;;3.90;;
71622;SDS011;59473;53.214;5.728;2022-12-29T06:06:07;14.67;;;3.40;;
71622;SDS011;59473;53.214;5.728;2022-12-29T06:08:32;22.13;;;4.60;;
71622;SDS011;59473;53.214;5.728;2022-12-29T06:10:58;29.03;;;5.07;;
71622;SDS011;59473;53.214;5.728;2022-12-29T06:13:23;28.10;;;4.47;;
71622;SDS011;59473;53.214;5.728;2022-12-29T06:15:48;26.50;;;4.20;;
71622;SDS011;59473;53.214;5.728;2022-12-29T06:18:14;24.30;;;3.95;;
71622;SDS011;59473;53.214;5.728;2022-12-29T06:20:39;28.77;;;5.25;;
71622;SDS011;59473;53.214;5.728;2022-12-29T06:23:04;25.40;;;4.03;;
71622;SDS011;59473;53.214;5.728;2022-12-29T06:25:30;20.10;;;4.63;;
71622;SDS011;59473;53.214;5.728;2022-12-29T06:27:57;21.52;;;3.67;;
71622;SDS011;59473;53.214;5.728;2022-12-29T06:30:22;36.77;;;4.70;;
71622;SDS011;59473;53.214;5.728;2022-12-29T06:32:47;31.07;;;5.17;;
71622;SDS011;59473;53.214;5.728;2022-12-29T06:35:13;30.17;;;5.00;;
71622;SDS011;59473;53.214;5.728;2022-12-29T06:37:38;31.43;;;5.00;;
71622;SDS011;59473;53.214;5.728;2022-12-29T06:40:03;24.20;;;4.67;;
71622;SDS011;59473;53.214;5.728;2022-12-29T06:42:29;26.77;;;4.43;;
71622;SDS011;59473;53.214;5.728;2022-12-29T06:44:54;26.93;;;4.53;;
71622;SDS011;59473;53.214;5.728;2022-12-29T06:47:22;34.00;;;4.70;;
71622;SDS011;59473;53.214;5.728;2022-12-29T06:49:47;32.53;;;4.17;;
71622;SDS011;59473;53.214;5.728;2022-12-29T06:52:12;31.93;;;6.07;;
71622;SDS011;59473;53.214;5.728;2022-12-29T06:54:38;29.60;;;4.20;;
71622;SDS011;59473;53.214;5.728;2022-12-29T06:57:03;33.37;;;4.53;;
71622;SDS011;59473;53.214;5.728;2022-12-29T06:59:28;22.10;;;4.90;;
71622;SDS011;59473;53.214;5.728;2022-12-29T07:01:53;26.43;;;4.30;;
71622;SDS011;59473;53.214;5.728;2022-12-29T07:04:18;26.60;;;4.70;;
71622;SDS011;59473;53.214;5.728;2022-12-29T07:06:44;30.03;;;4.40;;
71622;SDS011;59473;53.214;5.728;2022-12-29T07:09:09;35.73;;;4.80;;
71622;SDS011;59473;53.214;5.728;2022-12-29T07:11:35;28.45;;;4.70;;
71622;SDS011;59473;53.214;5.728;2022-12-29T07:14:00;37.60;;;5.50;;
71622;SDS011;59473;53.214;5.728;2022-12-29T07:16:26;34.23;;;4.90;;
71622;SDS011;59473;53.214;5.728;2022-12-29T07:18:51;27.60;;;4.53;;
71622;SDS011;59473;53.214;5.728;2022-12-29T07:21:17;31.63;;;5.27;;
71622;SDS011;59473;53.214;5.728;2022-12-29T07:23:42;42.17;;;5.45;;
71622;SDS011;59473;53.214;5.728;2022-12-29T07:26:08;47.23;;;5.97;;
71622;SDS011;59473;53.214;5.728;2022-12-29T07:28:35;31.60;;;4.50;;
71622;SDS011;59473;53.214;5.728;2022-12-29T07:31:00;19.57;;;3.87;;
71622;SDS011;59473;53.214;5.728;2022-12-29T07:33:27;25.53;;;3.90;;
71622;SDS011;59473;53.214;5.728;2022-12-29T07:35:53;23.17;;;4.38;;
71622;SDS011;59473;53.214;5.728;2022-12-29T07:38:18;26.00;;;5.57;;
71622;SDS011;59473;53.214;5.728;2022-12-29T07:40:43;34.37;;;5.80;;
71622;SDS011;59473;53.214;5.728;2022-12-29T07:43:09;32.23;;;4.90;;
71622;SDS011;59473;53.214;5.728;2022-12-29T07:45:34;29.70;;;4.50;;
71622;SDS011;59473;53.214;5.728;2022-12-29T07:47:59;26.90;;;4.27;;
71622;SDS011;59473;53.214;5.728;2022-12-29T07:50:24;24.77;;;5.15;;
71622;SDS011;59473;53.214;5.728;2022-12-29T07:52:49;25.10;;;5.17;;
71622;SDS011;59473;53.214;5.728;2022-12-29T07:55:15;22.45;;;4.60;;
71622;SDS011;59473;53.214;5.728;2022-12-29T07:57:41;25.67;;;4.55;;
71622;SDS011;59473;53.214;5.728;2022-12-29T08:00:06;26.27;;;4.17;;
71622;SDS011;59473;53.214;5.728;2022-12-29T08:02:32;32.97;;;5.25;;
71622;SDS011;59473;53.214;5.728;2022-12-29T08:04:57;35.67;;;3.90;;
71622;SDS011;59473;53.214;5.728;2022-12-29T08:07:22;22.97;;;4.60;;
71622;SDS011;59473;53.214;5.728;2022-12-29T08:09:47;30.20;;;4.47;;
71622;SDS011;59473;53.214;5.728;2022-12-29T08:12:12;23.10;;;3.73;;
71622;SDS011;59473;53.214;5.728;2022-12-29T08:14:38;29.77;;;4.50;;
71622;SDS011;59473;53.214;5.728;2022-12-29T08:17:03;33.23;;;8.37;;
71622;SDS011;59473;53.214;5.728;2022-12-29T08:19:28;33.60;;;9.37;;
71622;SDS011;59473;53.214;5.728;2022-12-29T08:21:54;30.47;;;6.67;;
71622;SDS011;59473;53.214;5.728;2022-12-29T08:24:19;30.87;;;5.53;;
71622;SDS011;59473;53.214;5.728;2022-12-29T08:26:44;29.37;;;5.27;;
71622;SDS011;59473;53.214;5.728;2022-12-29T08:29:09;36.27;;;5.30;;
71622;SDS011;59473;53.214;5.728;2022-12-29T08:31:35;31.63;;;5.10;;
71622;SDS011;59473;53.214;5.728;2022-12-29T08:34:00;24.87;;;5.03;;
71622;SDS011;59473;53.214;5.728;2022-12-29T08:36:26;23.17;;;4.50;;
71622;SDS011;59473;53.214;5.728;2022-12-29T08:38:51;27.57;;;4.23;;
71622;SDS011;59473;53.214;5.728;2022-12-29T08:41:16;32.83;;;4.60;;
71622;SDS011;59473;53.214;5.728;2022-12-29T08:43:45;29.30;;;4.20;;
71622;SDS011;59473;53.214;5.728;2022-12-29T08:46:10;35.35;;;5.43;;
71622;SDS011;59473;53.214;5.728;2022-12-29T08:48:35;28.77;;;4.77;;
71622;SDS011;59473;53.214;5.728;2022-12-29T08:51:00;31.27;;;4.67;;
71622;SDS011;59473;53.214;5.728;2022-12-29T08:53:25;32.50;;;5.37;;
71622;SDS011;59473;53.214;5.728;2022-12-29T08:55:55;24.47;;;4.37;;
71622;SDS011;59473;53.214;5.728;2022-12-29T08:58:21;33.50;;;5.00;;
71622;SDS011;59473;53.214;5.728;2022-12-29T09:00:46;23.77;;;4.10;;
71622;SDS011;59473;53.214;5.728;2022-12-29T09:03:11;27.90;;;5.07;;
71622;SDS011;59473;53.214;5.728;2022-12-29T09:05:37;33.83;;;5.30;;
71622;SDS011;59473;53.214;5.728;2022-12-29T09:08:02;30.73;;;4.90;;
71622;SDS011;59473;53.214;5.728;2022-12-29T09:10:27;28.23;;;4.87;;
71622;SDS011;59473;53.214;5.728;2022-12-29T09:12:53;34.47;;;4.80;;
71622;SDS011;59473;53.214;5.728;2022-12-29T09:15:18;36.83;;;4.90;;
71622;SDS011;59473;53.214;5.728;2022-12-29T09:17:43;31.03;;;4.60;;
71622;SDS011;59473;53.214;5.728;2022-12-29T09:20:09;24.55;;;4.75;;
71622;SDS011;59473;53.214;5.728;2022-12-29T09:22:35;24.30;;;5.35;;
71622;SDS011;59473;53.214;5.728;2022-12-29T09:25:01;38.72;;;5.93;;
71622;SDS011;59473;53.214;5.728;2022-12-29T09:27:26;33.13;;;5.03;;
71622;SDS011;59473;53.214;5.728;2022-12-29T09:29:51;24.57;;;5.20;;
71622;SDS011;59473;53.214;5.728;2022-12-29T09:32:16;28.80;;;5.17;;
71622;SDS011;59473;53.214;5.728;2022-12-29T09:34:42;36.50;;;6.50;;
71622;SDS011;59473;53.214;5.728;2022-12-29T09:37:07;31.63;;;5.13;;
71622;SDS011;59473;53.214;5.728;2022-12-29T09:39:32;26.23;;;4.73;;
71622;SDS011;59473;53.214;5.728;2022-12-29T09:44:24;24.73;;;4.70;;
71622;SDS011;59473;53.214;5.728;2022-12-29T09:46:51;33.58;;;5.50;;
71622;SDS011;59473;53.214;5.728;2022-12-29T09:49:23;29.13;;;4.72;;
71622;SDS011;59473;53.214;5.728;2022-12-29T09:51:53;32.42;;;4.60;;
71622;SDS011;59473;53.214;5.728;2022-12-29T09:54:35;17.98;;;3.40;;
71622;SDS011;59473;53.214;5.728;2022-12-29T09:57:01;15.30;;;3.40;;
71622;SDS011;59473;53.214;5.728;2022-12-29T09:59:34;20.05;;;3.65;;
71622;SDS011;59473;53.214;5.728;2022-12-29T10:02:05;34.88;;;5.32;;
71622;SDS011;59473;53.214;5.728;2022-12-29T10:04:35;24.37;;;4.40;;
71622;SDS011;59473;53.214;5.728;2022-12-29T10:07:02;26.43;;;4.53;;
71622;SDS011;59473;53.214;5.728;2022-12-29T10:09:35;17.98;;;4.70;;
71622;SDS011;59473;53.214;5.728;2022-12-29T10:12:06;23.52;;;4.40;;
71622;SDS011;59473;53.214;5.728;2022-12-29T10:14:47;31.17;;;4.93;;
71622;SDS011;59473;53.214;5.728;2022-12-29T10:25:04;33.40;;;5.67;;
71622;SDS011;59473;53.214;5.728;2022-12-29T10:27:33;36.70;;;6.57;;
71622;SDS011;59473;53.214;5.728;2022-12-29T10:29:59;41.28;;;5.90;;
71622;SDS011;59473;53.214;5.728;2022-12-29T10:34:51;31.17;;;4.97;;
71622;SDS011;59473;53.214;5.728;2022-12-29T10:40:25;28.58;;;4.75;;
71622;SDS011;59473;53.214;5.728;2022-12-29T10:42:53;37.78;;;4.55;;
71622;SDS011;59473;53.214;5.728;2022-12-29T10:45:19;23.33;;;4.13;;
71622;SDS011;59473;53.214;5.728;2022-12-29T10:50:22;19.73;;;4.50;;
71622;SDS011;59473;53.214;5.728;2022-12-29T10:52:48;25.48;;;4.55;;
71622;SDS011;59473;53.214;5.728;2022-12-29T10:55:19;27.60;;;4.37;;
71622;SDS011;59473;53.214;5.728;2022-12-29T10:57:46;21.75;;;3.58;;
71622;SDS011;59473;53.214;5.728;2022-12-29T11:00:16;21.30;;;3.72;;
71622;SDS011;59473;53.214;5.728;2022-12-29T11:02:55;26.10;;;4.97;;
71622;SDS011;59473;53.214;5.728;2022-12-29T11:05:35;23.75;;;4.43;;
71622;SDS011;59473;53.214;5.728;2022-12-29T11:08:03;32.35;;;5.18;;
71622;SDS011;59473;53.214;5.728;2022-12-29T11:10:37;23.70;;;3.90;;
71622;SDS011;59473;53.214;5.728;2022-12-29T11:13:16;26.03;;;4.33;;
71622;SDS011;59473;53.214;5.728;2022-12-29T11:15:44;23.38;;;4.13;;
71622;SDS011;59473;53.214;5.728;2022-12-29T11:20:43;21.73;;;4.00;;
71622;SDS011;59473;53.214;5.728;2022-12-29T11:26:14;17.38;;;3.20;;
71622;SDS011;59473;53.214;5.728;2022-12-29T11:28:38;21.20;;;4.03;;
71622;SDS011;59473;53.214;5.728;2022-12-29T11:31:04;13.13;;;3.00;;
71622;SDS011;59473;53.214;5.728;2022-12-29T11:33:30;22.48;;;3.53;;
71622;SDS011;59473;53.214;5.728;2022-12-29T11:36:03;20.65;;;2.95;;
71622;SDS011;59473;53.214;5.728;2022-12-29T11:38:36;11.55;;;3.03;;
71622;SDS011;59473;53.214;5.728;2022-12-29T11:41:02;21.17;;;3.60;;
71622;SDS011;59473;53.214;5.728;2022-12-29T11:43:37;20.70;;;3.10;;
71622;SDS011;59473;53.214;5.728;2022-12-29T11:46:03;20.48;;;3.47;;
71622;SDS011;59473;53.214;5.728;2022-12-29T11:48:30;20.20;;;3.45;;
71622;SDS011;59473;53.214;5.728;2022-12-29T11:50:57;13.63;;;2.70;;
71622;SDS011;59473;53.214;5.728;2022-12-29T11:53:39;19.42;;;3.10;;
71622;SDS011;59473;53.214;5.728;2022-12-29T11:56:05;19.83;;;3.70;;
71622;SDS011;59473;53.214;5.728;2022-12-29T11:58:33;18.35;;;3.90;;
71622;SDS011;59473;53.214;5.728;2022-12-29T12:01:21;15.25;;;3.00;;
71622;SDS011;59473;53.214;5.728;2022-12-29T12:03:48;15.17;;;2.90;;
71622;SDS011;59473;53.214;5.728;2022-12-29T12:06:19;19.27;;;3.17;;
71622;SDS011;59473;53.214;5.728;2022-12-29T12:08:56;20.30;;;3.30;;
71622;SDS011;59473;53.214;5.728;2022-12-29T12:11:36;14.15;;;2.80;;
71622;SDS011;59473;53.214;5.728;2022-12-29T12:16:35;17.97;;;2.87;;
71622;SDS011;59473;53.214;5.728;2022-12-29T12:19:26;16.40;;;2.70;;
71622;SDS011;59473;53.214;5.728;2022-12-29T12:21:48;15.10;;;4.18;;
71622;SDS011;59473;53.214;5.728;2022-12-29T12:30:09;16.03;;;3.43;;
71622;SDS011;59473;53.214;5.728;2022-12-29T12:34:38;15.00;;;2.63;;
71622;SDS011;59473;53.214;5.728;2022-12-29T12:40:09;12.70;;;2.53;;
71622;SDS011;59473;53.214;5.728;2022-12-29T12:45:04;8.80;;;2.37;;
71622;SDS011;59473;53.214;5.728;2022-12-29T12:52:58;15.00;;;3.08;;
71622;SDS011;59473;53.214;5.728;2022-12-29T12:55:47;14.75;;;3.63;;
71622;SDS011;59473;53.214;5.728;2022-12-29T13:00:55;22.63;;;3.80;;
71622;SDS011;59473;53.214;5.728;2022-12-29T13:06:25;13.70;;;2.70;;
71622;SDS011;59473;53.214;5.728;2022-12-29T13:09:10;12.93;;;3.50;;
71622;SDS011;59473;53.214;5.728;2022-12-29T13:14:16;9.90;;;2.80;;
71622;SDS011;59473;53.214;5.728;2022-12-29T13:16:48;13.57;;;3.47;;
71622;SDS011;59473;53.214;5.728;2022-12-29T13:22:18;14.13;;;3.22;;
71622;SDS011;59473;53.214;5.728;2022-12-29T13:27:42;18.08;;;3.67;;
71622;SDS011;59473;53.214;5.728;2022-12-29T13:30:19;21.37;;;2.83;;
71622;SDS011;59473;53.214;5.728;2022-12-29T13:37:54;17.08;;;2.92;;
71622;SDS011;59473;53.214;5.728;2022-12-29T13:40:23;16.95;;;3.80;;
71622;SDS011;59473;53.214;5.728;2022-12-29T13:42:49;13.18;;;3.22;;
71622;SDS011;59473;53.214;5.728;2022-12-29T13:45:16;14.07;;;3.67;;
71622;SDS011;59473;53.214;5.728;2022-12-29T13:47:43;13.02;;;2.85;;
71622;SDS011;59473;53.214;5.728;2022-12-29T13:50:17;16.40;;;3.70;;
71622;SDS011;59473;53.214;5.728;2022-12-29T13:52:44;13.20;;;3.25;;
71622;SDS011;59473;53.214;5.728;2022-12-29T14:00:20;19.17;;;3.30;;
71622;SDS011;59473;53.214;5.728;2022-12-29T14:05:29;18.27;;;3.43;;
71622;SDS011;59473;53.214;5.728;2022-12-29T14:07:59;13.40;;;3.25;;
71622;SDS011;59473;53.214;5.728;2022-12-29T14:10:37;10.38;;;2.42;;
71622;SDS011;59473;53.214;5.728;2022-12-29T14:13:04;14.47;;;3.23;;
71622;SDS011;59473;53.214;5.728;2022-12-29T14:15:30;13.13;;;3.05;;
71622;SDS011;59473;53.214;5.728;2022-12-29T14:18:03;13.97;;;3.03;;
71622;SDS011;59473;53.214;5.728;2022-12-29T14:20:28;17.05;;;3.22;;
71622;SDS011;59473;53.214;5.728;2022-12-29T14:22:58;18.47;;;3.00;;
71622;SDS011;59473;53.214;5.728;2022-12-29T14:28:26;14.30;;;3.17;;
71622;SDS011;59473;53.214;5.728;2022-12-29T14:30:53;19.60;;;2.92;;
71622;SDS011;59473;53.214;5.728;2022-12-29T14:33:19;18.85;;;2.97;;
71622;SDS011;59473;53.214;5.728;2022-12-29T14:35:46;11.73;;;2.70;;
71622;SDS011;59473;53.214;5.728;2022-12-29T14:38:15;18.75;;;3.60;;
71622;SDS011;59473;53.214;5.728;2022-12-29T14:40:41;13.57;;;3.85;;
71622;SDS011;59473;53.214;5.728;2022-12-29T14:43:11;12.00;;;3.17;;
71622;SDS011;59473;53.214;5.728;2022-12-29T14:45:38;17.25;;;2.67;;
71622;SDS011;59473;53.214;5.728;2022-12-29T14:48:21;13.60;;;2.80;;
71622;SDS011;59473;53.214;5.728;2022-12-29T14:50:52;19.10;;;3.80;;
71622;SDS011;59473;53.214;5.728;2022-12-29T14:56:02;14.02;;;3.90;;
71622;SDS011;59473;53.214;5.728;2022-12-29T14:58:31;10.73;;;3.33;;
71622;SDS011;59473;53.214;5.728;2022-12-29T15:00:58;13.77;;;3.30;;
71622;SDS011;59473;53.214;5.728;2022-12-29T15:05:55;9.77;;;3.17;;
71622;SDS011;59473;53.214;5.728;2022-12-29T15:08:29;15.80;;;3.70;;
71622;SDS011;59473;53.214;5.728;2022-12-29T15:13:40;17.65;;;4.38;;
71622;SDS011;59473;53.214;5.728;2022-12-29T15:19:05;19.83;;;4.00;;
71622;SDS011;59473;53.214;5.728;2022-12-29T15:21:45;22.05;;;3.60;;
71622;SDS011;59473;53.214;5.728;2022-12-29T15:24:11;27.30;;;4.27;;
71622;SDS011;59473;53.214;5.728;2022-12-29T15:26:39;24.30;;;3.53;;
71622;SDS011;59473;53.214;5.728;2022-12-29T15:29:05;19.63;;;3.47;;
71622;SDS011;59473;53.214;5.728;2022-12-29T15:31:50;16.17;;;3.63;;
71622;SDS011;59473;53.214;5.728;2022-12-29T15:34:15;19.00;;;3.67;;
71622;SDS011;59473;53.214;5.728;2022-12-29T15:36:45;18.40;;;3.65;;
71622;SDS011;59473;53.214;5.728;2022-12-29T15:39:17;16.73;;;3.07;;
71622;SDS011;59473;53.214;5.728;2022-12-29T15:41:44;18.30;;;3.60;;
71622;SDS011;59473;53.214;5.728;2022-12-29T15:44:37;16.95;;;3.50;;
71622;SDS011;59473;53.214;5.728;2022-12-29T15:47:06;17.35;;;3.42;;
71622;SDS011;59473;53.214;5.728;2022-12-29T15:49:35;17.70;;;3.58;;
71622;SDS011;59473;53.214;5.728;2022-12-29T15:52:01;22.23;;;4.13;;
71622;SDS011;59473;53.214;5.728;2022-12-29T15:54:30;14.93;;;3.80;;
71622;SDS011;59473;53.214;5.728;2022-12-29T15:56:56;26.50;;;5.82;;
71622;SDS011;59473;53.214;5.728;2022-12-29T15:59:25;12.07;;;3.00;;
71622;SDS011;59473;53.214;5.728;2022-12-29T16:01:51;11.60;;;2.92;;
71622;SDS011;59473;53.214;5.728;2022-12-29T16:04:17;10.10;;;3.00;;
71622;SDS011;59473;53.214;5.728;2022-12-29T16:06:53;12.50;;;2.30;;
71622;SDS011;59473;53.214;5.728;2022-12-29T16:09:27;16.13;;;3.08;;
71622;SDS011;59473;53.214;5.728;2022-12-29T16:11:54;17.95;;;2.95;;
71622;SDS011;59473;53.214;5.728;2022-12-29T16:14:24;17.08;;;3.50;;
71622;SDS011;59473;53.214;5.728;2022-12-29T16:16:52;20.40;;;3.53;;
71622;SDS011;59473;53.214;5.728;2022-12-29T16:21:57;14.98;;;3.38;;
71622;SDS011;59473;53.214;5.728;2022-12-29T16:24:24;17.27;;;3.70;;
71622;SDS011;59473;53.214;5.728;2022-12-29T16:26:53;14.63;;;2.87;;
71622;SDS011;59473;53.214;5.728;2022-12-29T16:29:20;14.10;;;2.95;;
71622;SDS011;59473;53.214;5.728;2022-12-29T16:34:13;20.07;;;3.40;;
71622;SDS011;59473;53.214;5.728;2022-12-29T16:41:47;17.20;;;4.27;;
71622;SDS011;59473;53.214;5.728;2022-12-29T16:44:20;20.93;;;3.90;;
71622;SDS011;59473;53.214;5.728;2022-12-29T16:46:57;15.88;;;3.63;;
71622;SDS011;59473;53.214;5.728;2022-12-29T16:49:23;18.15;;;4.18;;
71622;SDS011;59473;53.214;5.728;2022-12-29T16:51:48;22.10;;;4.20;;